createdAt,value
2022-10-13T00:01:57.375Z,92.97
2022-10-13T00:04:23.919Z,92.61
2022-10-13T00:06:50.256Z,93.17
2022-10-13T00:09:16.595Z,92.83
2022-10-13T00:11:42.928Z,92.38
2022-10-13T00:14:09.283Z,92.75
2022-10-13T00:16:36.009Z,92.61
2022-10-13T00:19:02.466Z,92.33
2022-10-13T00:21:29.530Z,92.05
2022-10-13T00:23:56.287Z,92.50
2022-10-13T00:26:24.330Z,92.30
2022-10-13T00:28:52.914Z,92.75
2022-10-13T00:31:25.632Z,92.85
2022-10-13T00:33:52.923Z,92.11
2022-10-13T00:36:20.210Z,92.40
2022-10-13T00:38:46.723Z,92.06
2022-10-13T00:41:13.394Z,92.31
2022-10-13T00:43:59.907Z,92.21
2022-10-13T00:46:29.983Z,91.97
2022-10-13T00:48:59.017Z,92.89
2022-10-13T00:51:30.101Z,92.20
2022-10-13T00:53:58.137Z,93.21
2022-10-13T00:56:26.111Z,92.97
2022-10-13T00:58:53.543Z,92.87
2022-10-13T01:01:19.991Z,93.66
2022-10-13T01:03:46.535Z,92.97
2022-10-13T01:06:14.164Z,93.21
2022-10-13T01:08:40.549Z,93.28
2022-10-13T01:11:18.772Z,93.11
2022-10-13T01:13:45.389Z,92.77
2022-10-13T01:16:45.116Z,92.55
2022-10-13T01:19:30.162Z,92.48
2022-10-13T01:22:29.495Z,92.86
2022-10-13T01:25:07.806Z,94.05
2022-10-13T01:27:56.000Z,94.87
2022-10-13T01:30:23.286Z,94.50
2022-10-13T01:33:04.244Z,94.64
2022-10-13T01:36:00.974Z,94.38
2022-10-13T01:38:48.860Z,94.40
2022-10-13T01:41:36.835Z,94.34
2022-10-13T01:44:20.875Z,95.01
2022-10-13T01:46:50.669Z,95.87
2022-10-13T01:49:19.769Z,95.10
2022-10-13T01:51:47.253Z,95.59
2022-10-13T01:54:13.567Z,95.10
2022-10-13T01:56:39.963Z,94.93
2022-10-13T01:59:11.326Z,95.43
2022-10-13T02:01:43.660Z,95.21
2022-10-13T02:04:23.442Z,95.23
2022-10-13T02:07:22.195Z,94.09
2022-10-13T02:09:54.318Z,93.71
2022-10-13T02:12:28.402Z,94.30
2022-10-13T02:14:57.068Z,94.49
2022-10-13T02:17:26.229Z,94.16
2022-10-13T02:19:54.165Z,94.43
2022-10-13T02:22:24.419Z,94.29
2022-10-13T02:24:50.968Z,94.97
2022-10-13T02:27:17.581Z,94.63
2022-10-13T02:29:56.119Z,94.60
2022-10-13T02:32:23.183Z,94.65
2022-10-13T02:34:50.429Z,94.46
2022-10-13T02:37:17.455Z,95.28
2022-10-13T02:39:43.883Z,94.29
2022-10-13T02:42:10.289Z,94.39
2022-10-13T02:44:36.615Z,93.85
2022-10-13T02:47:03.073Z,93.96
2022-10-13T02:49:29.418Z,93.89
2022-10-13T02:51:55.804Z,94.09
2022-10-13T02:54:22.146Z,93.47
2022-10-13T02:56:48.490Z,93.60
2022-10-13T02:59:14.936Z,93.59
2022-10-13T03:01:42.090Z,93.46
2022-10-13T03:04:08.969Z,92.90
2022-10-13T03:06:35.484Z,93.75
2022-10-13T03:09:01.863Z,92.78
2022-10-13T03:11:28.303Z,93.49
2022-10-13T03:13:54.699Z,92.96
2022-10-13T03:16:21.090Z,92.77
2022-10-13T03:18:47.433Z,93.40
2022-10-13T03:21:14.609Z,93.15
2022-10-13T03:23:40.968Z,93.60
2022-10-13T03:26:07.334Z,93.63
2022-10-13T03:28:34.242Z,93.88
2022-10-13T03:31:11.738Z,93.08
2022-10-13T03:33:39.307Z,93.57
2022-10-13T03:36:05.987Z,94.25
2022-10-13T03:38:33.982Z,93.43
2022-10-13T03:41:12.422Z,93.50
2022-10-13T03:43:39.017Z,94.75
2022-10-13T03:46:07.104Z,94.42
2022-10-13T03:48:35.286Z,94.29
2022-10-13T03:51:06.402Z,94.63
2022-10-13T03:53:33.284Z,94.29
2022-10-13T03:55:59.779Z,94.30
2022-10-13T03:58:28.950Z,94.52
2022-10-13T04:00:56.796Z,94.67
2022-10-13T04:03:24.325Z,95.48
2022-10-13T04:05:50.790Z,95.00
2022-10-13T04:08:18.188Z,94.93
2022-10-13T04:10:44.634Z,94.30
2022-10-13T04:13:11.164Z,94.56
2022-10-13T04:15:39.043Z,94.20
2022-10-13T04:18:07.228Z,94.57
2022-10-13T04:20:39.953Z,94.51
2022-10-13T04:23:07.508Z,93.20
2022-10-13T04:25:38.508Z,93.64
2022-10-13T04:28:06.014Z,93.89
2022-10-13T04:30:35.589Z,92.87
2022-10-13T04:33:02.309Z,93.68
2022-10-13T04:35:29.177Z,93.65
2022-10-13T04:37:57.869Z,94.59
2022-10-13T04:40:25.071Z,93.86
2022-10-13T04:42:51.895Z,93.11
2022-10-13T04:45:18.431Z,93.35
2022-10-13T04:47:44.876Z,93.30
2022-10-13T04:50:11.409Z,93.23
2022-10-13T04:52:37.825Z,94.45
2022-10-13T04:55:04.482Z,94.46
2022-10-13T04:57:30.912Z,93.91
2022-10-13T04:59:57.262Z,94.58
2022-10-13T05:02:23.588Z,94.14
2022-10-13T05:04:49.924Z,95.31
2022-10-13T05:07:18.541Z,95.38
2022-10-13T05:09:45.506Z,94.49
2022-10-13T05:12:11.877Z,94.98
2022-10-13T05:14:38.232Z,95.23
2022-10-13T05:17:04.675Z,95.52
2022-10-13T05:19:31.086Z,94.91
2022-10-13T05:21:57.444Z,94.97
2022-10-13T05:24:31.022Z,95.27
2022-10-13T05:26:57.759Z,95.27
2022-10-13T05:29:24.101Z,94.96
2022-10-13T05:31:50.503Z,95.77
2022-10-13T05:34:16.828Z,95.71
2022-10-13T05:36:43.244Z,95.53
2022-10-13T05:39:10.833Z,94.74
2022-10-13T05:41:38.780Z,94.43
2022-10-13T05:44:08.499Z,93.98
2022-10-13T05:46:35.460Z,93.35
2022-10-13T05:49:02.101Z,94.27
2022-10-13T05:51:33.458Z,93.46
2022-10-13T05:54:24.243Z,93.46
2022-10-13T05:57:02.650Z,94.24
2022-10-13T05:59:33.388Z,93.33
2022-10-13T06:02:02.296Z,93.48
2022-10-13T06:04:34.562Z,94.24
2022-10-13T06:07:00.958Z,93.74
2022-10-13T06:09:37.913Z,93.50
2022-10-13T06:12:05.450Z,93.13
2022-10-13T06:14:31.884Z,93.65
2022-10-13T06:16:58.460Z,93.49
2022-10-13T06:19:24.858Z,92.67
2022-10-13T06:21:51.374Z,92.88
2022-10-13T06:24:17.971Z,93.34
2022-10-13T06:26:44.282Z,93.01
2022-10-13T06:29:10.700Z,92.33
2022-10-13T06:31:37.179Z,92.48
2022-10-13T06:34:09.635Z,93.32
2022-10-13T06:36:36.288Z,92.34
2022-10-13T06:39:02.626Z,93.05
2022-10-13T06:41:28.959Z,92.62
2022-10-13T06:43:55.299Z,92.79
2022-10-13T06:46:21.799Z,92.65
2022-10-13T06:48:51.801Z,92.20
2022-10-13T06:51:18.532Z,91.33
2022-10-13T06:53:45.136Z,91.67
2022-10-13T06:56:11.480Z,91.88
2022-10-13T06:58:38.466Z,90.97
2022-10-13T07:01:06.430Z,91.32
2022-10-13T07:03:33.564Z,90.88
2022-10-13T07:06:05.630Z,90.20
2022-10-13T07:08:33.025Z,89.94
2022-10-13T07:10:59.854Z,90.74
2022-10-13T07:13:26.248Z,90.49
2022-10-13T07:15:52.625Z,89.98
2022-10-13T07:18:19.050Z,90.22
2022-10-13T07:20:45.399Z,89.65
2022-10-13T07:23:11.740Z,90.34
2022-10-13T07:25:38.107Z,90.75
2022-10-13T07:28:04.522Z,89.96
2022-10-13T07:30:30.898Z,90.19
2022-10-13T07:32:57.300Z,89.58
2022-10-13T07:35:30.290Z,89.03
2022-10-13T07:37:57.193Z,88.83
2022-10-13T07:40:23.919Z,89.07
2022-10-13T07:42:50.401Z,89.43
2022-10-13T07:45:16.971Z,89.69
2022-10-13T07:47:43.318Z,90.24
2022-10-13T07:50:10.443Z,89.73
2022-10-13T07:52:37.093Z,89.34
2022-10-13T07:55:03.929Z,88.59
2022-10-13T07:57:30.315Z,89.21
2022-10-13T07:59:56.656Z,88.96
2022-10-13T08:02:23.019Z,88.64
2022-10-13T08:04:49.356Z,88.43
2022-10-13T08:07:16.806Z,88.09
2022-10-13T08:09:43.926Z,87.59
2022-10-13T08:12:10.768Z,87.28
2022-10-13T08:14:37.288Z,87.44
2022-10-13T08:17:03.699Z,87.41
2022-10-13T08:19:30.165Z,86.05
2022-10-13T08:21:58.619Z,87.19
2022-10-13T08:24:26.479Z,87.69
2022-10-13T08:26:52.959Z,86.53
2022-10-13T08:29:22.496Z,85.99
2022-10-13T08:31:50.927Z,85.61
2022-10-13T08:34:17.518Z,86.20
2022-10-13T08:36:44.019Z,86.59
2022-10-13T08:39:10.688Z,87.17
2022-10-13T08:41:40.816Z,86.80
2022-10-13T08:45:10.449Z,86.27
2022-10-13T08:47:44.203Z,86.43
2022-10-13T08:50:16.519Z,86.10
2022-10-13T08:52:51.564Z,85.36
2022-10-13T08:55:33.274Z,85.72
2022-10-13T08:58:01.858Z,86.26
2022-10-13T09:00:29.505Z,86.43
2022-10-13T09:03:38.561Z,86.85
2022-10-13T09:06:16.430Z,87.26
2022-10-13T09:08:49.923Z,87.33
2022-10-13T09:11:16.818Z,87.69
2022-10-13T09:13:43.460Z,87.62
2022-10-13T09:16:09.871Z,87.44
2022-10-13T09:18:37.496Z,87.51
2022-10-13T09:21:09.894Z,87.28
2022-10-13T09:23:39.565Z,87.28
2022-10-13T09:26:15.768Z,87.13
2022-10-13T09:28:42.665Z,86.80
2022-10-13T09:31:24.506Z,85.98
2022-10-13T09:34:15.002Z,85.29
2022-10-13T09:37:01.797Z,85.03
2022-10-13T09:39:28.207Z,85.79
2022-10-13T09:42:22.786Z,85.31
2022-10-13T09:44:58.488Z,84.95
2022-10-13T09:47:27.195Z,85.29
2022-10-13T09:50:20.565Z,85.39
2022-10-13T09:52:47.838Z,84.99
2022-10-13T09:55:33.072Z,85.06
2022-10-13T09:58:12.847Z,83.93
2022-10-13T10:00:40.177Z,84.65
2022-10-13T10:03:32.553Z,84.61
2022-10-13T10:06:14.477Z,84.01
2022-10-13T10:09:02.797Z,84.37
2022-10-13T10:11:42.226Z,84.30
2022-10-13T10:14:28.740Z,84.64
2022-10-13T10:17:20.811Z,84.22
2022-10-13T10:20:16.740Z,82.95
2022-10-13T10:23:04.660Z,83.34
2022-10-13T10:25:51.067Z,84.35
2022-10-13T10:28:39.773Z,84.15
2022-10-13T10:31:18.997Z,84.32
2022-10-13T10:34:03.712Z,84.87
2022-10-13T10:36:50.520Z,83.87
2022-10-13T10:39:46.221Z,83.76
2022-10-13T10:42:26.048Z,83.63
2022-10-13T10:44:54.861Z,84.13
2022-10-13T10:47:26.897Z,82.97
2022-10-13T10:50:01.402Z,83.63
2022-10-13T10:52:47.967Z,83.90
2022-10-13T10:55:26.027Z,83.73
2022-10-13T10:58:04.412Z,84.76
2022-10-13T11:00:39.092Z,84.17
2022-10-13T11:03:33.472Z,84.40
2022-10-13T11:06:05.701Z,84.36
2022-10-13T11:08:38.014Z,84.43
2022-10-13T11:11:26.574Z,84.81
2022-10-13T11:14:02.134Z,85.03
2022-10-13T11:16:49.879Z,85.14
2022-10-13T11:19:39.539Z,84.40
2022-10-13T11:22:05.853Z,83.93
2022-10-13T11:24:35.111Z,83.12
2022-10-13T11:27:19.571Z,82.54
2022-10-13T11:29:46.554Z,82.75
2022-10-13T11:32:30.292Z,82.38
2022-10-13T11:35:19.938Z,82.56
2022-10-13T11:38:07.633Z,83.29
2022-10-13T11:41:06.811Z,81.99
2022-10-13T11:44:06.455Z,82.44
2022-10-13T11:46:56.846Z,82.24
2022-10-13T11:49:48.707Z,82.42
2022-10-13T11:52:31.364Z,81.63
2022-10-13T11:55:15.094Z,81.33
2022-10-13T11:57:41.537Z,82.23
2022-10-13T12:00:15.984Z,82.84
2022-10-13T12:02:50.698Z,81.68
2022-10-13T12:05:26.262Z,80.88
2022-10-13T12:07:56.926Z,80.60
2022-10-13T12:10:37.843Z,79.83
2022-10-13T12:13:05.193Z,79.80
2022-10-13T12:15:37.523Z,80.78
2022-10-13T12:18:23.970Z,80.66
2022-10-13T12:20:56.507Z,80.52
2022-10-13T12:23:22.975Z,79.88
2022-10-13T12:25:56.482Z,78.83
2022-10-13T12:28:23.883Z,77.99
2022-10-13T12:30:57.096Z,77.93
2022-10-13T12:33:28.897Z,78.60
2022-10-13T12:35:55.826Z,78.08
2022-10-13T12:38:23.072Z,77.33
2022-10-13T12:40:51.198Z,76.64
2022-10-13T12:43:22.122Z,76.18
2022-10-13T12:45:48.588Z,75.40
2022-10-13T12:48:36.138Z,72.67
2022-10-13T12:51:24.076Z,74.36
2022-10-13T12:53:50.552Z,73.57
2022-10-13T12:56:31.005Z,74.38
2022-10-13T12:58:58.570Z,75.18
2022-10-13T13:01:35.117Z,74.35
2022-10-13T13:04:21.027Z,72.30
2022-10-13T13:07:05.449Z,73.26
2022-10-13T13:09:34.064Z,73.85
2022-10-13T13:12:04.770Z,72.93
2022-10-13T13:14:38.336Z,73.31
2022-10-13T13:20:32.172Z,73.46
2022-10-13T13:22:58.940Z,73.93
2022-10-13T13:25:25.338Z,74.07
2022-10-13T13:27:52.006Z,74.06
2022-10-13T13:30:21.698Z,74.44
2022-10-13T13:32:48.226Z,74.92
2022-10-13T13:35:14.714Z,73.89
2022-10-13T13:37:50.941Z,73.88
2022-10-13T13:40:27.988Z,72.88
2022-10-13T13:42:56.499Z,74.06
2022-10-13T13:45:26.786Z,74.28
2022-10-13T13:47:56.758Z,72.80
2022-10-13T13:50:28.667Z,71.69
2022-10-13T13:52:55.009Z,72.37
2022-10-13T13:55:22.417Z,72.20
2022-10-13T13:57:48.818Z,72.64
2022-10-13T14:00:16.831Z,72.80
2022-10-13T14:02:44.552Z,72.10
2022-10-13T14:05:12.268Z,71.68
2022-10-13T14:07:39.450Z,72.59
2022-10-13T14:10:07.233Z,71.55
2022-10-13T14:12:34.061Z,71.39
2022-10-13T14:15:00.450Z,72.35
2022-10-13T14:17:27.987Z,72.57
2022-10-13T14:19:54.931Z,72.94
2022-10-13T14:22:23.050Z,72.75
2022-10-13T14:24:49.641Z,72.55
2022-10-13T14:27:16.405Z,72.37
2022-10-13T14:29:42.908Z,72.55
2022-10-13T14:32:09.382Z,72.60
2022-10-13T14:34:35.873Z,72.44
2022-10-13T14:37:02.353Z,73.16
2022-10-13T14:39:28.963Z,74.17
2022-10-13T14:41:55.440Z,73.67
2022-10-13T14:44:21.961Z,74.68
2022-10-13T14:46:48.431Z,74.12
2022-10-13T14:49:14.850Z,73.43
2022-10-13T14:51:42.314Z,73.86
2022-10-13T14:54:08.940Z,74.24
2022-10-13T14:56:35.916Z,73.89
2022-10-13T14:59:05.119Z,74.64
2022-10-13T15:01:33.369Z,74.08
2022-10-13T15:04:03.351Z,73.82
2022-10-13T15:06:31.981Z,74.56
2022-10-13T15:08:58.554Z,74.05
2022-10-13T15:11:26.765Z,73.73
2022-10-13T15:13:53.457Z,73.17
2022-10-13T15:16:32.538Z,72.88
2022-10-13T15:18:59.301Z,73.64
2022-10-13T15:21:26.865Z,73.37
2022-10-13T15:23:53.228Z,74.38
2022-10-13T15:26:20.275Z,73.96
2022-10-13T15:28:49.732Z,74.11
2022-10-13T15:31:17.757Z,74.46
2022-10-13T15:33:46.767Z,74.91
2022-10-13T15:36:13.205Z,75.16
2022-10-13T15:38:39.822Z,75.06
2022-10-13T15:41:06.879Z,74.64
2022-10-13T15:43:34.255Z,74.63
2022-10-13T15:46:04.019Z,75.15
2022-10-13T15:48:31.805Z,76.12
2022-10-13T15:50:58.283Z,75.34
2022-10-13T15:53:24.880Z,75.40
2022-10-13T15:55:51.324Z,75.24
2022-10-13T15:58:17.883Z,75.75
2022-10-13T16:00:44.825Z,75.45
2022-10-13T16:03:16.457Z,75.35
2022-10-13T16:05:44.187Z,75.51
2022-10-13T16:08:10.770Z,76.85
2022-10-13T16:10:42.083Z,77.83
2022-10-13T16:13:12.341Z,78.06
2022-10-13T16:15:38.848Z,77.74
2022-10-13T16:18:05.468Z,78.54
2022-10-13T16:20:37.570Z,79.37
2022-10-13T16:23:04.616Z,79.75
2022-10-13T16:25:31.945Z,79.80
2022-10-13T16:27:59.370Z,79.99
2022-10-13T16:30:25.883Z,80.68
2022-10-13T16:32:52.218Z,79.82
2022-10-13T16:35:18.580Z,80.11
2022-10-13T16:37:44.891Z,80.03
2022-10-13T16:40:11.300Z,79.98
2022-10-13T16:42:37.752Z,80.20
2022-10-13T16:45:04.751Z,80.03
2022-10-13T16:47:32.119Z,80.17
2022-10-13T16:49:58.454Z,80.27
2022-10-13T16:52:24.815Z,80.27
2022-10-13T16:54:51.251Z,80.74
2022-10-13T16:57:17.912Z,81.34
2022-10-13T16:59:44.382Z,80.88
2022-10-13T17:02:14.353Z,80.64
2022-10-13T17:04:41.224Z,81.27
2022-10-13T17:07:07.946Z,81.47
2022-10-13T17:09:34.465Z,81.35
2022-10-13T17:12:01.187Z,82.23
2022-10-13T17:14:27.676Z,81.92
2022-10-13T17:16:57.783Z,81.59
2022-10-13T17:19:25.065Z,81.00
2022-10-13T17:21:51.495Z,81.70
2022-10-13T17:24:17.966Z,81.63
2022-10-13T17:26:44.374Z,82.58
2022-10-13T17:29:10.789Z,82.26
2022-10-13T17:31:37.836Z,83.15
2022-10-13T17:34:05.965Z,83.05
2022-10-13T17:36:33.910Z,83.24
2022-10-13T17:39:06.782Z,82.72
2022-10-13T17:41:33.855Z,82.79
2022-10-13T17:44:00.582Z,82.74
2022-10-13T17:46:38.772Z,83.55
2022-10-13T17:49:09.135Z,83.42
2022-10-13T17:51:35.611Z,83.07
2022-10-13T17:54:02.331Z,83.08
2022-10-13T17:56:28.990Z,82.18
2022-10-13T17:58:55.616Z,83.29
2022-10-13T18:01:28.254Z,83.50
2022-10-13T18:03:57.461Z,83.33
2022-10-13T18:06:24.118Z,84.00
2022-10-13T18:08:50.727Z,84.10
2022-10-13T18:11:19.275Z,83.86
2022-10-13T18:13:46.214Z,84.46
2022-10-13T18:16:17.166Z,85.42
2022-10-13T18:18:44.924Z,84.53
2022-10-13T18:21:13.720Z,85.53
2022-10-13T18:23:41.810Z,85.81
2022-10-13T18:26:12.027Z,86.26
2022-10-13T18:28:45.411Z,85.36
2022-10-13T18:31:20.565Z,85.53
2022-10-13T18:33:47.850Z,85.58
2022-10-13T18:36:20.017Z,85.96
2022-10-13T18:38:47.422Z,86.18
2022-10-13T18:41:15.108Z,86.30
2022-10-13T18:43:41.550Z,85.80
2022-10-13T18:46:08.398Z,85.57
2022-10-13T18:48:35.781Z,85.58
2022-10-13T18:51:10.323Z,85.82
2022-10-13T18:53:38.409Z,85.06
2022-10-13T18:56:16.167Z,86.21
2022-10-13T18:58:42.815Z,86.28
2022-10-13T19:01:12.213Z,87.74
2022-10-13T19:03:40.187Z,87.37
2022-10-13T19:06:09.695Z,86.82
2022-10-13T19:08:36.823Z,87.09
2022-10-13T19:11:21.984Z,87.65
2022-10-13T19:13:50.303Z,87.29
2022-10-13T19:16:19.907Z,88.37
2022-10-13T19:18:47.166Z,88.40
2022-10-13T19:21:13.716Z,88.35
2022-10-13T19:23:41.186Z,88.75
2022-10-13T19:26:15.678Z,88.08
2022-10-13T19:28:43.074Z,88.50
2022-10-13T19:31:14.231Z,88.21
2022-10-13T19:33:44.759Z,87.27
2022-10-13T19:36:19.241Z,87.37
2022-10-13T19:38:45.596Z,87.11
2022-10-13T19:41:12.084Z,86.93
2022-10-13T19:43:38.418Z,87.41
2022-10-13T19:46:07.067Z,88.01
2022-10-13T19:48:33.916Z,87.81
2022-10-13T19:51:01.588Z,87.64
2022-10-13T19:53:28.020Z,87.01
2022-10-13T19:55:54.454Z,87.08
2022-10-13T19:58:23.773Z,86.95
2022-10-13T20:00:50.176Z,87.75
2022-10-13T20:03:16.974Z,88.23
2022-10-13T20:05:43.677Z,88.27
2022-10-13T20:08:11.518Z,88.07
2022-10-13T20:10:43.003Z,88.10
2022-10-13T20:13:10.824Z,88.98
2022-10-13T20:15:42.656Z,88.57
2022-10-13T20:18:12.898Z,88.37
2022-10-13T20:20:40.423Z,89.68
2022-10-13T20:23:07.615Z,88.55
2022-10-13T20:25:37.938Z,89.63
2022-10-13T20:28:05.512Z,89.10
2022-10-13T20:30:32.731Z,89.92
2022-10-13T20:33:00.648Z,90.43
2022-10-13T20:35:27.655Z,90.38
2022-10-13T20:37:54.047Z,90.23
2022-10-13T20:40:20.471Z,90.82
2022-10-13T20:42:51.718Z,90.29
2022-10-13T20:45:18.869Z,90.17
2022-10-13T20:47:46.665Z,89.01
2022-10-13T20:50:13.048Z,88.56
2022-10-13T20:52:40.502Z,89.22
2022-10-13T20:55:07.105Z,89.34
2022-10-13T20:57:33.552Z,89.54
2022-10-13T20:59:59.963Z,89.11
2022-10-13T21:02:26.412Z,89.07
2022-10-13T21:04:52.943Z,89.24
2022-10-13T21:07:19.765Z,89.96
2022-10-13T21:09:50.195Z,88.81
2022-10-13T21:12:19.215Z,89.70
2022-10-13T21:14:45.557Z,89.20
2022-10-13T21:17:11.973Z,88.79
2022-10-13T21:19:38.389Z,88.74
2022-10-13T21:22:04.770Z,88.87
2022-10-13T21:24:31.236Z,88.94
2022-10-13T21:26:57.766Z,88.60
2022-10-13T21:29:24.366Z,88.10
2022-10-13T21:31:50.802Z,88.27
2022-10-13T21:34:17.303Z,89.31
2022-10-13T21:36:44.851Z,89.10
2022-10-13T21:39:11.510Z,88.84
2022-10-13T21:41:37.895Z,88.73
2022-10-13T21:44:04.324Z,88.19
2022-10-13T21:46:33.305Z,89.39
2022-10-13T21:49:02.360Z,89.26
2022-10-13T21:51:39.341Z,90.54
2022-10-13T21:54:11.414Z,90.32
2022-10-13T21:56:39.698Z,91.41
2022-10-13T21:59:06.815Z,90.60
2022-10-13T22:01:34.172Z,91.80
2022-10-13T22:04:01.586Z,92.98
2022-10-13T22:06:29.764Z,92.74
2022-10-13T22:08:57.742Z,91.46
2022-10-13T22:11:27.250Z,92.29
2022-10-13T22:13:56.332Z,91.99
2022-10-13T22:16:31.226Z,92.41
2022-10-13T22:18:58.390Z,92.76
2022-10-13T22:21:28.111Z,93.11
2022-10-13T22:24:00.055Z,92.31
2022-10-13T22:26:28.418Z,92.24
2022-10-13T22:28:57.155Z,92.33
2022-10-13T22:31:23.661Z,91.85
2022-10-13T22:33:53.455Z,93.11
2022-10-13T22:36:24.879Z,92.11
2022-10-13T22:38:54.095Z,92.98
2022-10-13T22:41:21.455Z,93.61
2022-10-13T22:43:56.054Z,93.13
2022-10-13T22:46:24.996Z,93.39
2022-10-13T22:48:51.514Z,94.19
2022-10-13T22:51:23.250Z,95.32
2022-10-13T22:53:50.428Z,94.77
2022-10-13T22:56:23.751Z,94.55
2022-10-13T22:58:55.887Z,94.39
2022-10-13T23:01:23.106Z,94.13
2022-10-13T23:03:51.385Z,94.30
2022-10-13T23:06:20.866Z,94.06
2022-10-13T23:08:47.415Z,94.50
2022-10-13T23:11:14.051Z,94.04
2022-10-13T23:13:40.544Z,94.25
2022-10-13T23:16:10.350Z,93.92
2022-10-13T23:18:37.139Z,93.85
2022-10-13T23:21:08.708Z,95.16
2022-10-13T23:23:35.462Z,94.46
2022-10-13T23:26:06.376Z,94.13
2022-10-13T23:28:34.616Z,94.50
2022-10-13T23:31:03.270Z,94.57
2022-10-13T23:33:30.171Z,95.35
2022-10-13T23:35:57.967Z,94.44
2022-10-13T23:38:25.652Z,95.11
2022-10-13T23:40:52.385Z,93.82
2022-10-13T23:43:19.658Z,94.48
2022-10-13T23:45:46.306Z,94.13
2022-10-13T23:48:12.722Z,93.71
2022-10-13T23:50:39.079Z,93.92
2022-10-13T23:53:05.501Z,93.69
2022-10-13T23:55:31.860Z,94.08
2022-10-13T23:57:58.189Z,93.84
